sensor_id;sensor_type;location;lat;lon;timestamp;temperature;humidity
21805;DHT22;11064;47.102;15.452;2023-10-19T04:03:26;3.80;99.90
21805;DHT22;11064;47.102;15.452;2023-10-19T04:05:56;3.80;99.90
21805;DHT22;11064;47.102;15.452;2023-10-19T04:08:21;3.80;99.90
21805;DHT22;11064;47.102;15.452;2023-10-19T04:10:52;3.80;99.90
21805;DHT22;11064;47.102;15.452;2023-10-19T04:13:36;3.80;99.90
21805;DHT22;11064;47.102;15.452;2023-10-19T04:16:03;3.80;99.90
21805;DHT22;11064;47.102;15.452;2023-10-19T04:18:29;3.90;99.90
21805;DHT22;11064;47.102;15.452;2023-10-19T04:20:54;3.90;99.90
21805;DHT22;11064;47.102;15.452;2023-10-19T04:23:21;3.90;99.90
21805;DHT22;11064;47.102;15.452;2023-10-19T04:25:48;3.90;99.90
21805;DHT22;11064;47.102;15.452;2023-10-19T04:28:14;3.80;99.90
21805;DHT22;11064;47.102;15.452;2023-10-19T04:30:40;3.80;99.90
21805;DHT22;11064;47.102;15.452;2023-10-19T04:33:06;3.80;99.90
21805;DHT22;11064;47.102;15.452;2023-10-19T04:35:36;3.90;99.90
21805;DHT22;11064;47.102;15.452;2023-10-19T04:38:04;3.90;99.90
21805;DHT22;11064;47.102;15.452;2023-10-19T04:40:33;3.90;99.90
21805;DHT22;11064;47.102;15.452;2023-10-19T04:43:02;3.90;99.90
21805;DHT22;11064;47.102;15.452;2023-10-19T04:45:30;3.90;99.90
21805;DHT22;11064;47.102;15.452;2023-10-19T04:47:55;3.90;99.90
21805;DHT22;11064;47.102;15.452;2023-10-19T04:50:22;3.90;99.90
21805;DHT22;11064;47.102;15.452;2023-10-19T04:52:47;3.90;99.90
21805;DHT22;11064;47.102;15.452;2023-10-19T04:55:13;3.90;99.90
21805;DHT22;11064;47.102;15.452;2023-10-19T04:57:39;3.90;99.90
21805;DHT22;11064;47.102;15.452;2023-10-19T05:00:05;3.80;99.90
21805;DHT22;11064;47.102;15.452;2023-10-19T05:02:31;3.80;99.90
21805;DHT22;11064;47.102;15.452;2023-10-19T05:04:57;3.90;99.90
21805;DHT22;11064;47.102;15.452;2023-10-19T05:07:23;3.90;99.90
21805;DHT22;11064;47.102;15.452;2023-10-19T05:09:49;4.00;99.90
21805;DHT22;11064;47.102;15.452;2023-10-19T05:12:14;4.00;99.90
21805;DHT22;11064;47.102;15.452;2023-10-19T05:14:41;4.00;99.90
21805;DHT22;11064;47.102;15.452;2023-10-19T05:17:08;4.00;99.90
21805;DHT22;11064;47.102;15.452;2023-10-19T05:19:39;4.00;99.90
21805;DHT22;11064;47.102;15.452;2023-10-19T05:22:06;3.90;99.90
21805;DHT22;11064;47.102;15.452;2023-10-19T05:24:33;4.00;99.90
21805;DHT22;11064;47.102;15.452;2023-10-19T05:26:59;4.00;99.90
21805;DHT22;11064;47.102;15.452;2023-10-19T05:29:24;4.10;99.90
21805;DHT22;11064;47.102;15.452;2023-10-19T05:31:51;4.10;99.90
21805;DHT22;11064;47.102;15.452;2023-10-19T05:34:26;4.10;99.90
21805;DHT22;11064;47.102;15.452;2023-10-19T05:36:52;4.10;99.90
21805;DHT22;11064;47.102;15.452;2023-10-19T05:39:19;4.20;99.90
21805;DHT22;11064;47.102;15.452;2023-10-19T05:41:46;4.20;99.90
21805;DHT22;11064;47.102;15.452;2023-10-19T05:44:12;4.20;99.90
21805;DHT22;11064;47.102;15.452;2023-10-19T05:46:38;4.30;99.90
21805;DHT22;11064;47.102;15.452;2023-10-19T05:49:06;4.30;99.90
21805;DHT22;11064;47.102;15.452;2023-10-19T05:51:32;4.40;99.90
21805;DHT22;11064;47.102;15.452;2023-10-19T05:53:58;4.50;99.90
21805;DHT22;11064;47.102;15.452;2023-10-19T05:56:30;4.60;99.90
21805;DHT22;11064;47.102;15.452;2023-10-19T05:58:57;4.70;99.90
21805;DHT22;11064;47.102;15.452;2023-10-19T06:01:24;4.70;99.90
21805;DHT22;11064;47.102;15.452;2023-10-19T06:03:50;4.80;99.90
21805;DHT22;11064;47.102;15.452;2023-10-19T06:06:22;4.90;99.90
21805;DHT22;11064;47.102;15.452;2023-10-19T06:08:48;5.00;99.90
21805;DHT22;11064;47.102;15.452;2023-10-19T06:11:15;5.10;99.90
21805;DHT22;11064;47.102;15.452;2023-10-19T06:13:41;5.20;99.90
21805;DHT22;11064;47.102;15.452;2023-10-19T06:16:06;5.20;99.90
21805;DHT22;11064;47.102;15.452;2023-10-19T06:18:32;5.30;99.90
21805;DHT22;11064;47.102;15.452;2023-10-19T06:20:58;5.30;99.90
21805;DHT22;11064;47.102;15.452;2023-10-19T06:23:24;5.30;99.90
21805;DHT22;11064;47.102;15.452;2023-10-19T06:25:50;5.40;99.90
21805;DHT22;11064;47.102;15.452;2023-10-19T06:28:17;5.40;99.90
21805;DHT22;11064;47.102;15.452;2023-10-19T06:30:43;5.50;99.90
21805;DHT22;11064;47.102;15.452;2023-10-19T06:33:10;5.50;99.90
21805;DHT22;11064;47.102;15.452;2023-10-19T06:35:36;5.50;99.90
21805;DHT22;11064;47.102;15.452;2023-10-19T06:38:03;5.60;99.90
21805;DHT22;11064;47.102;15.452;2023-10-19T06:40:35;5.60;99.90
21805;DHT22;11064;47.102;15.452;2023-10-19T06:43:04;5.70;99.90
21805;DHT22;11064;47.102;15.452;2023-10-19T06:45:31;5.70;99.90
21805;DHT22;11064;47.102;15.452;2023-10-19T06:47:57;5.70;99.90
21805;DHT22;11064;47.102;15.452;2023-10-19T06:50:25;5.80;99.90
21805;DHT22;11064;47.102;15.452;2023-10-19T06:52:51;5.90;99.90
21805;DHT22;11064;47.102;15.452;2023-10-19T06:55:18;6.10;99.90
21805;DHT22;11064;47.102;15.452;2023-10-19T06:57:48;6.10;99.90
21805;DHT22;11064;47.102;15.452;2023-10-19T07:00:15;6.20;99.90
21805;DHT22;11064;47.102;15.452;2023-10-19T07:02:49;6.20;99.90
21805;DHT22;11064;47.102;15.452;2023-10-19T07:05:17;6.40;99.90
21805;DHT22;11064;47.102;15.452;2023-10-19T07:07:56;6.50;99.90
21805;DHT22;11064;47.102;15.452;2023-10-19T07:10:25;6.60;99.90
21805;DHT22;11064;47.102;15.452;2023-10-19T07:12:54;6.80;99.90
21805;DHT22;11064;47.102;15.452;2023-10-19T07:15:20;6.90;99.90
21805;DHT22;11064;47.102;15.452;2023-10-19T07:17:49;7.20;99.90
21805;DHT22;11064;47.102;15.452;2023-10-19T07:20:17;7.30;99.90
21805;DHT22;11064;47.102;15.452;2023-10-19T07:22:56;7.50;99.90
21805;DHT22;11064;47.102;15.452;2023-10-19T07:25:25;7.60;99.90
21805;DHT22;11064;47.102;15.452;2023-10-19T07:27:52;7.70;99.90
21805;DHT22;11064;47.102;15.452;2023-10-19T07:30:19;7.80;99.90
21805;DHT22;11064;47.102;15.452;2023-10-19T07:32:52;8.00;99.90
21805;DHT22;11064;47.102;15.452;2023-10-19T07:35:24;8.30;99.90
21805;DHT22;11064;47.102;15.452;2023-10-19T07:37:54;8.40;99.90
21805;DHT22;11064;47.102;15.452;2023-10-19T07:40:22;8.60;99.90
21805;DHT22;11064;47.102;15.452;2023-10-19T07:42:49;8.80;99.90
21805;DHT22;11064;47.102;15.452;2023-10-19T07:45:18;8.80;99.90
21805;DHT22;11064;47.102;15.452;2023-10-19T07:47:45;8.90;99.90
21805;DHT22;11064;47.102;15.452;2023-10-19T07:50:12;9.00;99.90
21805;DHT22;11064;47.102;15.452;2023-10-19T07:52:50;9.00;99.90
21805;DHT22;11064;47.102;15.452;2023-10-19T07:55:16;9.20;99.90
21805;DHT22;11064;47.102;15.452;2023-10-19T07:57:43;9.20;99.90
21805;DHT22;11064;47.102;15.452;2023-10-19T08:00:10;9.30;99.90
21805;DHT22;11064;47.102;15.452;2023-10-19T08:02:39;9.40;99.90
21805;DHT22;11064;47.102;15.452;2023-10-19T08:05:07;9.60;99.90
21805;DHT22;11064;47.102;15.452;2023-10-19T08:07:33;9.90;99.90
21805;DHT22;11064;47.102;15.452;2023-10-19T08:10:05;10.20;99.90
21805;DHT22;11064;47.102;15.452;2023-10-19T08:12:32;10.70;99.90
21805;DHT22;11064;47.102;15.452;2023-10-19T08:15:02;11.10;99.90
21805;DHT22;11064;47.102;15.452;2023-10-19T08:17:28;11.40;99.90
21805;DHT22;11064;47.102;15.452;2023-10-19T08:19:54;11.70;99.90
21805;DHT22;11064;47.102;15.452;2023-10-19T08:22:23;11.80;99.90
21805;DHT22;11064;47.102;15.452;2023-10-19T08:24:49;12.00;99.90
21805;DHT22;11064;47.102;15.452;2023-10-19T08:27:15;12.10;99.90
21805;DHT22;11064;47.102;15.452;2023-10-19T08:29:43;12.40;99.90
21805;DHT22;11064;47.102;15.452;2023-10-19T08:32:09;12.40;99.90
21805;DHT22;11064;47.102;15.452;2023-10-19T08:34:38;12.40;99.90
21805;DHT22;11064;47.102;15.452;2023-10-19T08:37:05;12.40;99.90
21805;DHT22;11064;47.102;15.452;2023-10-19T08:39:32;12.20;99.90
21805;DHT22;11064;47.102;15.452;2023-10-19T08:42:08;11.80;99.90
21805;DHT22;11064;47.102;15.452;2023-10-19T08:44:36;12.00;99.90
21805;DHT22;11064;47.102;15.452;2023-10-19T08:47:02;12.00;99.90
21805;DHT22;11064;47.102;15.452;2023-10-19T08:49:30;12.50;99.90
21805;DHT22;11064;47.102;15.452;2023-10-19T08:51:59;12.80;99.90
21805;DHT22;11064;47.102;15.452;2023-10-19T08:54:26;13.10;99.90
21805;DHT22;11064;47.102;15.452;2023-10-19T08:56:54;13.50;99.90
21805;DHT22;11064;47.102;15.452;2023-10-19T08:59:22;13.70;99.90
21805;DHT22;11064;47.102;15.452;2023-10-19T09:01:49;13.90;99.90
21805;DHT22;11064;47.102;15.452;2023-10-19T09:04:14;14.10;99.90
21805;DHT22;11064;47.102;15.452;2023-10-19T09:06:42;14.40;99.90
21805;DHT22;11064;47.102;15.452;2023-10-19T09:09:14;14.50;99.90
21805;DHT22;11064;47.102;15.452;2023-10-19T09:11:45;14.70;99.90
21805;DHT22;11064;47.102;15.452;2023-10-19T09:14:12;14.80;99.90
21805;DHT22;11064;47.102;15.452;2023-10-19T09:16:53;14.70;99.90
21805;DHT22;11064;47.102;15.452;2023-10-19T09:19:44;14.90;99.90
21805;DHT22;11064;47.102;15.452;2023-10-19T09:22:13;15.10;99.90
21805;DHT22;11064;47.102;15.452;2023-10-19T09:24:48;15.40;99.90
21805;DHT22;11064;47.102;15.452;2023-10-19T09:27:22;15.50;99.90
21805;DHT22;11064;47.102;15.452;2023-10-19T09:29:49;15.60;99.90
21805;DHT22;11064;47.102;15.452;2023-10-19T09:32:17;15.70;99.90
21805;DHT22;11064;47.102;15.452;2023-10-19T09:34:44;15.90;99.90
21805;DHT22;11064;47.102;15.452;2023-10-19T09:37:11;16.00;99.90
21805;DHT22;11064;47.102;15.452;2023-10-19T09:39:38;15.90;99.90
21805;DHT22;11064;47.102;15.452;2023-10-19T09:42:09;15.60;99.90
21805;DHT22;11064;47.102;15.452;2023-10-19T09:44:58;15.80;99.90
21805;DHT22;11064;47.102;15.452;2023-10-19T09:47:29;15.80;99.90
21805;DHT22;11064;47.102;15.452;2023-10-19T09:50:02;15.50;99.90
21805;DHT22;11064;47.102;15.452;2023-10-19T09:52:32;15.90;99.90
21805;DHT22;11064;47.102;15.452;2023-10-19T09:55:32;16.40;99.90
21805;DHT22;11064;47.102;15.452;2023-10-19T09:58:02;16.80;99.90
21805;DHT22;11064;47.102;15.452;2023-10-19T10:00:31;17.00;99.90
21805;DHT22;11064;47.102;15.452;2023-10-19T10:02:57;17.50;99.90
21805;DHT22;11064;47.102;15.452;2023-10-19T10:05:46;17.60;99.90
21805;DHT22;11064;47.102;15.452;2023-10-19T10:10:46;17.40;99.90
21805;DHT22;11064;47.102;15.452;2023-10-19T10:13:42;17.40;99.90
21805;DHT22;11064;47.102;15.452;2023-10-19T10:16:09;17.60;99.90
21805;DHT22;11064;47.102;15.452;2023-10-19T10:18:40;17.70;99.90
21805;DHT22;11064;47.102;15.452;2023-10-19T10:21:14;17.50;99.90
21805;DHT22;11064;47.102;15.452;2023-10-19T10:24:04;17.20;99.90
21805;DHT22;11064;47.102;15.452;2023-10-19T10:26:31;17.10;99.90
21805;DHT22;11064;47.102;15.452;2023-10-19T10:29:22;17.30;99.90
21805;DHT22;11064;47.102;15.452;2023-10-19T10:31:52;17.40;99.90
21805;DHT22;11064;47.102;15.452;2023-10-19T10:37:03;17.30;99.90
21805;DHT22;11064;47.102;15.452;2023-10-19T10:39:29;17.60;99.90
21805;DHT22;11064;47.102;15.452;2023-10-19T10:42:01;18.00;99.90
21805;DHT22;11064;47.102;15.452;2023-10-19T10:44:47;18.10;99.90
21805;DHT22;11064;47.102;15.452;2023-10-19T10:47:22;18.20;99.90
21805;DHT22;11064;47.102;15.452;2023-10-19T10:50:00;18.40;99.90
21805;DHT22;11064;47.102;15.452;2023-10-19T10:52:37;18.90;99.90
21805;DHT22;11064;47.102;15.452;2023-10-19T10:55:13;19.20;99.90
21805;DHT22;11064;47.102;15.452;2023-10-19T10:57:44;19.30;99.90
21805;DHT22;11064;47.102;15.452;2023-10-19T11:00:11;19.50;99.90
21805;DHT22;11064;47.102;15.452;2023-10-19T11:03:05;19.90;99.90
21805;DHT22;11064;47.102;15.452;2023-10-19T11:05:38;20.10;99.90
21805;DHT22;11064;47.102;15.452;2023-10-19T11:10:30;20.10;99.90
21805;DHT22;11064;47.102;15.452;2023-10-19T11:13:03;19.60;99.90
21805;DHT22;11064;47.102;15.452;2023-10-19T11:15:30;19.40;99.90
21805;DHT22;11064;47.102;15.452;2023-10-19T11:17:56;19.40;99.90
21805;DHT22;11064;47.102;15.452;2023-10-19T11:20:24;19.50;99.90
21805;DHT22;11064;47.102;15.452;2023-10-19T11:22:52;19.40;99.90
21805;DHT22;11064;47.102;15.452;2023-10-19T11:25:29;18.50;99.90
21805;DHT22;11064;47.102;15.452;2023-10-19T11:27:57;18.60;99.90
21805;DHT22;11064;47.102;15.452;2023-10-19T11:30:31;18.50;99.90
21805;DHT22;11064;47.102;15.452;2023-10-19T11:32:57;18.60;99.90
21805;DHT22;11064;47.102;15.452;2023-10-19T11:35:29;18.40;99.90
21805;DHT22;11064;47.102;15.452;2023-10-19T11:37:58;18.80;99.90
21805;DHT22;11064;47.102;15.452;2023-10-19T11:40:25;18.90;99.90
21805;DHT22;11064;47.102;15.452;2023-10-19T11:42:52;19.10;99.90
21805;DHT22;11064;47.102;15.452;2023-10-19T11:45:20;19.30;99.90
21805;DHT22;11064;47.102;15.452;2023-10-19T11:47:46;19.70;99.90
21805;DHT22;11064;47.102;15.452;2023-10-19T11:50:13;19.90;99.90
21805;DHT22;11064;47.102;15.452;2023-10-19T11:52:42;19.70;99.90
21805;DHT22;11064;47.102;15.452;2023-10-19T11:55:08;19.80;99.90
21805;DHT22;11064;47.102;15.452;2023-10-19T11:57:34;19.50;99.90
21805;DHT22;11064;47.102;15.452;2023-10-19T12:00:03;19.00;99.90
21805;DHT22;11064;47.102;15.452;2023-10-19T12:02:39;18.70;99.90
21805;DHT22;11064;47.102;15.452;2023-10-19T12:05:09;18.40;99.90
21805;DHT22;11064;47.102;15.452;2023-10-19T12:07:38;18.30;99.90
21805;DHT22;11064;47.102;15.452;2023-10-19T12:10:08;18.10;99.90
21805;DHT22;11064;47.102;15.452;2023-10-19T12:12:37;17.80;99.90
21805;DHT22;11064;47.102;15.452;2023-10-19T12:15:05;17.60;99.90
21805;DHT22;11064;47.102;15.452;2023-10-19T12:17:32;17.30;99.90
21805;DHT22;11064;47.102;15.452;2023-10-19T12:19:58;17.20;99.90
21805;DHT22;11064;47.102;15.452;2023-10-19T12:22:24;17.10;99.90
21805;DHT22;11064;47.102;15.452;2023-10-19T12:24:54;17.10;99.90
21805;DHT22;11064;47.102;15.452;2023-10-19T12:27:22;17.10;99.90
21805;DHT22;11064;47.102;15.452;2023-10-19T12:29:50;17.00;99.90
21805;DHT22;11064;47.102;15.452;2023-10-19T12:32:18;16.70;99.90
21805;DHT22;11064;47.102;15.452;2023-10-19T12:34:45;16.50;99.90
21805;DHT22;11064;47.102;15.452;2023-10-19T12:37:11;16.50;99.90
21805;DHT22;11064;47.102;15.452;2023-10-19T12:39:38;16.30;99.90
21805;DHT22;11064;47.102;15.452;2023-10-19T12:42:13;16.20;99.90
21805;DHT22;11064;47.102;15.452;2023-10-19T12:44:40;16.10;99.90
21805;DHT22;11064;47.102;15.452;2023-10-19T12:47:07;16.20;99.90
21805;DHT22;11064;47.102;15.452;2023-10-19T12:49:41;16.10;99.90
21805;DHT22;11064;47.102;15.452;2023-10-19T12:52:11;16.00;99.90
21805;DHT22;11064;47.102;15.452;2023-10-19T12:54:37;16.00;99.90
21805;DHT22;11064;47.102;15.452;2023-10-19T12:57:04;16.00;99.90
21805;DHT22;11064;47.102;15.452;2023-10-19T12:59:35;16.00;99.90
21805;DHT22;11064;47.102;15.452;2023-10-19T13:02:05;16.20;99.90
21805;DHT22;11064;47.102;15.452;2023-10-19T13:04:34;16.30;99.90
21805;DHT22;11064;47.102;15.452;2023-10-19T13:07:00;16.30;99.90
21805;DHT22;11064;47.102;15.452;2023-10-19T13:09:28;16.30;99.90
21805;DHT22;11064;47.102;15.452;2023-10-19T13:11:58;16.40;99.90
21805;DHT22;11064;47.102;15.452;2023-10-19T13:14:25;16.60;99.90
21805;DHT22;11064;47.102;15.452;2023-10-19T13:16:51;16.60;99.90
21805;DHT22;11064;47.102;15.452;2023-10-19T13:19:18;16.70;99.90
21805;DHT22;11064;47.102;15.452;2023-10-19T13:21:50;16.70;99.90
21805;DHT22;11064;47.102;15.452;2023-10-19T13:24:17;16.80;99.90
21805;DHT22;11064;47.102;15.452;2023-10-19T13:26:43;16.90;99.90
21805;DHT22;11064;47.102;15.452;2023-10-19T13:29:12;17.10;99.90
21805;DHT22;11064;47.102;15.452;2023-10-19T13:31:40;17.30;99.90
21805;DHT22;11064;47.102;15.452;2023-10-19T13:34:09;17.50;99.90
21805;DHT22;11064;47.102;15.452;2023-10-19T13:36:36;17.60;99.90
21805;DHT22;11064;47.102;15.452;2023-10-19T13:39:04;17.70;99.90
21805;DHT22;11064;47.102;15.452;2023-10-19T13:41:32;17.90;99.90
21805;DHT22;11064;47.102;15.452;2023-10-19T13:43:57;18.20;99.90
21805;DHT22;11064;47.102;15.452;2023-10-19T13:46:23;18.60;99.90
21805;DHT22;11064;47.102;15.452;2023-10-19T13:48:50;18.70;99.90
21805;DHT22;11064;47.102;15.452;2023-10-19T13:51:17;18.70;99.90
21805;DHT22;11064;47.102;15.452;2023-10-19T13:53:44;18.50;99.90
21805;DHT22;11064;47.102;15.452;2023-10-19T13:56:11;18.40;99.90
21805;DHT22;11064;47.102;15.452;2023-10-19T13:58:37;18.30;99.90
21805;DHT22;11064;47.102;15.452;2023-10-19T14:01:07;18.10;99.90
21805;DHT22;11064;47.102;15.452;2023-10-19T14:03:34;17.90;99.90
21805;DHT22;11064;47.102;15.452;2023-10-19T14:06:00;17.70;99.90
21805;DHT22;11064;47.102;15.452;2023-10-19T14:08:26;17.40;99.90
21805;DHT22;11064;47.102;15.452;2023-10-19T14:10:52;17.30;99.90
21805;DHT22;11064;47.102;15.452;2023-10-19T14:13:18;17.10;99.90
21805;DHT22;11064;47.102;15.452;2023-10-19T14:15:44;16.80;99.90
21805;DHT22;11064;47.102;15.452;2023-10-19T14:18:10;16.70;99.90
21805;DHT22;11064;47.102;15.452;2023-10-19T14:20:37;16.60;99.90
21805;DHT22;11064;47.102;15.452;2023-10-19T14:23:05;16.40;99.90
21805;DHT22;11064;47.102;15.452;2023-10-19T14:25:31;16.40;99.90
21805;DHT22;11064;47.102;15.452;2023-10-19T14:27:57;16.40;99.90
21805;DHT22;11064;47.102;15.452;2023-10-19T14:30:26;16.40;99.90
21805;DHT22;11064;47.102;15.452;2023-10-19T14:32:53;16.30;99.90
21805;DHT22;11064;47.102;15.452;2023-10-19T14:35:20;16.40;99.90
21805;DHT22;11064;47.102;15.452;2023-10-19T14:37:49;16.50;99.90
21805;DHT22;11064;47.102;15.452;2023-10-19T14:40:22;16.60;99.90
21805;DHT22;11064;47.102;15.452;2023-10-19T14:42:51;16.70;99.90
21805;DHT22;11064;47.102;15.452;2023-10-19T14:45:20;16.80;99.90
21805;DHT22;11064;47.102;15.452;2023-10-19T14:47:49;16.80;99.90
21805;DHT22;11064;47.102;15.452;2023-10-19T14:50:18;16.80;99.90
21805;DHT22;11064;47.102;15.452;2023-10-19T14:52:45;16.70;99.90
21805;DHT22;11064;47.102;15.452;2023-10-19T14:55:13;16.50;99.90
21805;DHT22;11064;47.102;15.452;2023-10-19T14:57:47;16.40;99.90
21805;DHT22;11064;47.102;15.452;2023-10-19T15:00:15;16.10;99.90
21805;DHT22;11064;47.102;15.452;2023-10-19T15:02:54;16.00;99.90
21805;DHT22;11064;47.102;15.452;2023-10-19T15:05:23;15.70;99.90
21805;DHT22;11064;47.102;15.452;2023-10-19T15:07:51;15.60;99.90
21805;DHT22;11064;47.102;15.452;2023-10-19T15:10:19;15.50;99.90
21805;DHT22;11064;47.102;15.452;2023-10-19T15:12:45;15.50;99.90
21805;DHT22;11064;47.102;15.452;2023-10-19T15:15:11;15.40;99.90
21805;DHT22;11064;47.102;15.452;2023-10-19T15:17:38;15.30;99.90
21805;DHT22;11064;47.102;15.452;2023-10-19T15:20:09;15.20;99.90
21805;DHT22;11064;47.102;15.452;2023-10-19T15:22:39;15.10;99.90
21805;DHT22;11064;47.102;15.452;2023-10-19T15:25:05;15.10;99.90
21805;DHT22;11064;47.102;15.452;2023-10-19T15:27:37;15.00;99.90
21805;DHT22;11064;47.102;15.452;2023-10-19T15:30:04;15.00;99.90
21805;DHT22;11064;47.102;15.452;2023-10-19T15:32:35;15.00;99.90
21805;DHT22;11064;47.102;15.452;2023-10-19T15:35:01;15.00;99.90
21805;DHT22;11064;47.102;15.452;2023-10-19T15:37:28;15.00;99.90
21805;DHT22;11064;47.102;15.452;2023-10-19T15:39:53;15.00;99.90
21805;DHT22;11064;47.102;15.452;2023-10-19T15:42:20;14.90;99.90
21805;DHT22;11064;47.102;15.452;2023-10-19T15:44:48;14.90;99.90
21805;DHT22;11064;47.102;15.452;2023-10-19T15:47:15;14.90;99.90
21805;DHT22;11064;47.102;15.452;2023-10-19T15:49:52;15.00;99.90
21805;DHT22;11064;47.102;15.452;2023-10-19T15:52:22;15.00;99.90
21805;DHT22;11064;47.102;15.452;2023-10-19T15:54:49;14.80;99.90
21805;DHT22;11064;47.102;15.452;2023-10-19T15:57:16;14.80;99.90
21805;DHT22;11064;47.102;15.452;2023-10-19T15:59:43;14.60;99.90
21805;DHT22;11064;47.102;15.452;2023-10-19T16:02:13;14.50;99.90
21805;DHT22;11064;47.102;15.452;2023-10-19T16:04:41;14.30;99.90
21805;DHT22;11064;47.102;15.452;2023-10-19T16:07:11;14.20;99.90
21805;DHT22;11064;47.102;15.452;2023-10-19T16:09:38;14.10;99.90
21805;DHT22;11064;47.102;15.452;2023-10-19T16:12:04;14.10;99.90
21805;DHT22;11064;47.102;15.452;2023-10-19T16:14:34;14.10;99.90
21805;DHT22;11064;47.102;15.452;2023-10-19T16:17:03;14.00;99.90
21805;DHT22;11064;47.102;15.452;2023-10-19T16:19:29;13.90;99.90
21805;DHT22;11064;47.102;15.452;2023-10-19T16:21:59;13.90;99.90
21805;DHT22;11064;47.102;15.452;2023-10-19T16:24:26;14.00;99.90
21805;DHT22;11064;47.102;15.452;2023-10-19T16:26:53;14.00;99.90
21805;DHT22;11064;47.102;15.452;2023-10-19T16:29:23;14.00;99.90
21805;DHT22;11064;47.102;15.452;2023-10-19T16:31:49;14.00;99.90
21805;DHT22;11064;47.102;15.452;2023-10-19T16:34:17;13.90;99.90
21805;DHT22;11064;47.102;15.452;2023-10-19T16:36:43;13.90;99.90
21805;DHT22;11064;47.102;15.452;2023-10-19T16:39:11;13.90;99.90
21805;DHT22;11064;47.102;15.452;2023-10-19T16:41:42;14.00;99.90
21805;DHT22;11064;47.102;15.452;2023-10-19T16:44:08;14.00;99.90
21805;DHT22;11064;47.102;15.452;2023-10-19T16:46:35;14.10;99.90
21805;DHT22;11064;47.102;15.452;2023-10-19T16:49:06;14.20;99.90
21805;DHT22;11064;47.102;15.452;2023-10-19T16:51:34;14.20;99.90
21805;DHT22;11064;47.102;15.452;2023-10-19T16:54:15;14.20;99.90
21805;DHT22;11064;47.102;15.452;2023-10-19T16:56:42;14.10;99.90
21805;DHT22;11064;47.102;15.452;2023-10-19T16:59:15;14.20;99.90
21805;DHT22;11064;47.102;15.452;2023-10-19T17:01:45;14.20;99.90
21805;DHT22;11064;47.102;15.452;2023-10-19T17:04:12;14.30;99.90
21805;DHT22;11064;47.102;15.452;2023-10-19T17:06:40;14.30;99.90
21805;DHT22;11064;47.102;15.452;2023-10-19T17:09:12;14.20;99.90
21805;DHT22;11064;47.102;15.452;2023-10-19T17:11:47;14.20;99.90
21805;DHT22;11064;47.102;15.452;2023-10-19T17:14:14;14.10;99.90
21805;DHT22;11064;47.102;15.452;2023-10-19T17:16:42;14.30;99.90
21805;DHT22;11064;47.102;15.452;2023-10-19T17:19:10;14.30;99.90
21805;DHT22;11064;47.102;15.452;2023-10-19T17:21:38;14.40;99.90
21805;DHT22;11064;47.102;15.452;2023-10-19T17:24:06;14.40;99.90
21805;DHT22;11064;47.102;15.452;2023-10-19T17:26:33;14.50;99.90
21805;DHT22;11064;47.102;15.452;2023-10-19T17:29:00;14.50;99.90
21805;DHT22;11064;47.102;15.452;2023-10-19T17:31:26;14.60;99.90
21805;DHT22;11064;47.102;15.452;2023-10-19T17:33:53;14.60;99.90
21805;DHT22;11064;47.102;15.452;2023-10-19T17:36:21;14.50;99.90
21805;DHT22;11064;47.102;15.452;2023-10-19T17:38:48;14.50;99.90
21805;DHT22;11064;47.102;15.452;2023-10-19T17:41:14;14.50;99.90
21805;DHT22;11064;47.102;15.452;2023-10-19T17:43:41;14.50;99.90
21805;DHT22;11064;47.102;15.452;2023-10-19T17:46:10;14.40;99.90
21805;DHT22;11064;47.102;15.452;2023-10-19T17:48:41;14.40;99.90
21805;DHT22;11064;47.102;15.452;2023-10-19T17:51:09;14.40;99.90
21805;DHT22;11064;47.102;15.452;2023-10-19T17:53:36;14.40;99.90
21805;DHT22;11064;47.102;15.452;2023-10-19T17:56:05;14.40;99.90
21805;DHT22;11064;47.102;15.452;2023-10-19T17:58:35;14.30;99.90
21805;DHT22;11064;47.102;15.452;2023-10-19T18:01:03;14.30;99.90
21805;DHT22;11064;47.102;15.452;2023-10-19T18:03:36;14.30;99.90
21805;DHT22;11064;47.102;15.452;2023-10-19T18:06:08;14.30;99.90
21805;DHT22;11064;47.102;15.452;2023-10-19T18:08:37;14.30;99.90
21805;DHT22;11064;47.102;15.452;2023-10-19T18:11:11;14.30;99.90
21805;DHT22;11064;47.102;15.452;2023-10-19T18:13:41;14.20;99.90
21805;DHT22;11064;47.102;15.452;2023-10-19T18:16:10;14.20;99.90
21805;DHT22;11064;47.102;15.452;2023-10-19T18:18:38;14.20;99.90
21805;DHT22;11064;47.102;15.452;2023-10-19T18:21:15;14.20;99.90
21805;DHT22;11064;47.102;15.452;2023-10-19T18:23:45;14.10;99.90
21805;DHT22;11064;47.102;15.452;2023-10-19T18:26:15;14.10;99.90
21805;DHT22;11064;47.102;15.452;2023-10-19T18:28:45;14.10;99.90
21805;DHT22;11064;47.102;15.452;2023-10-19T18:31:14;14.10;99.90
21805;DHT22;11064;47.102;15.452;2023-10-19T18:33:44;14.10;99.90
21805;DHT22;11064;47.102;15.452;2023-10-19T18:36:11;14.10;99.90
21805;DHT22;11064;47.102;15.452;2023-10-19T18:38:41;14.10;99.90
21805;DHT22;11064;47.102;15.452;2023-10-19T18:41:08;14.00;99.90
21805;DHT22;11064;47.102;15.452;2023-10-19T18:43:35;14.00;99.90
21805;DHT22;11064;47.102;15.452;2023-10-19T18:46:02;14.10;99.90
21805;DHT22;11064;47.102;15.452;2023-10-19T18:48:29;14.10;99.90
21805;DHT22;11064;47.102;15.452;2023-10-19T18:51:06;14.10;99.90
21805;DHT22;11064;47.102;15.452;2023-10-19T18:53:33;14.10;99.90
21805;DHT22;11064;47.102;15.452;2023-10-19T18:56:01;14.00;99.90
21805;DHT22;11064;47.102;15.452;2023-10-19T18:58:29;14.00;99.90
21805;DHT22;11064;47.102;15.452;2023-10-19T19:00:58;13.90;99.90
21805;DHT22;11064;47.102;15.452;2023-10-19T19:03:26;13.90;99.90
21805;DHT22;11064;47.102;15.452;2023-10-19T19:05:56;13.80;99.90
21805;DHT22;11064;47.102;15.452;2023-10-19T19:08:31;13.80;99.90
21805;DHT22;11064;47.102;15.452;2023-10-19T19:10:59;13.70;99.90
21805;DHT22;11064;47.102;15.452;2023-10-19T19:13:34;13.60;99.90
21805;DHT22;11064;47.102;15.452;2023-10-19T19:16:00;13.70;99.90
21805;DHT22;11064;47.102;15.452;2023-10-19T19:18:27;13.70;99.90
21805;DHT22;11064;47.102;15.452;2023-10-19T19:20:54;13.60;99.90
21805;DHT22;11064;47.102;15.452;2023-10-19T19:23:33;13.60;99.90
21805;DHT22;11064;47.102;15.452;2023-10-19T19:25:59;13.60;99.90
21805;DHT22;11064;47.102;15.452;2023-10-19T19:28:27;13.60;99.90
21805;DHT22;11064;47.102;15.452;2023-10-19T19:30:58;13.50;99.90
21805;DHT22;11064;47.102;15.452;2023-10-19T19:33:25;13.40;99.90
21805;DHT22;11064;47.102;15.452;2023-10-19T19:35:51;13.40;99.90
21805;DHT22;11064;47.102;15.452;2023-10-19T19:38:20;13.30;99.90
21805;DHT22;11064;47.102;15.452;2023-10-19T19:40:47;13.20;99.90